Time;durP1;ratioP1;P1;durP2;ratioP2;P2;SDS_P1;SDS_P2;PMS_P1;PMS_P2;Temp;Humidity;BMP_temperature;BMP_pressure;BME280_temperature;BME280_humidity;BME280_pressure;Samples;Min_cycle;Max_cycle;Signal;HPM_P1;HPM_P2
2022/06/15 00:00:45;;;;;;;4.20;2.58;;;19.10;99.90;;;;;;5069198;28;20077;-79
2022/06/15 00:03:18;;;;;;;5.53;2.72;;;19.10;99.90;;;;;;5068317;28;20041;-80
2022/06/15 00:05:45;;;;;;;5.65;2.33;;;19.10;99.90;;;;;;5065818;28;20045;-79
2022/06/15 00:08:11;;;;;;;5.63;2.03;;;19.10;99.90;;;;;;5066741;28;20048;-80
2022/06/15 00:10:39;;;;;;;3.17;2.40;;;19.10;99.90;;;;;;5069822;28;20134;-80
2022/06/15 00:13:07;;;;;;;4.50;2.15;;;19.00;99.90;;;;;;5062962;28;20061;-79
2022/06/15 00:15:34;;;;;;;6.00;2.40;;;19.00;99.90;;;;;;5069332;28;20143;-79
2022/06/15 00:18:01;;;;;;;4.72;2.20;;;19.00;99.90;;;;;;5066503;28;20041;-80
2022/06/15 00:20:28;;;;;;;6.75;3.47;;;18.90;99.90;;;;;;5068153;28;20055;-79
2022/06/15 00:22:55;;;;;;;3.60;2.90;;;18.80;99.90;;;;;;5066949;28;20044;-80
2022/06/15 00:25:22;;;;;;;5.95;2.70;;;18.80;99.90;;;;;;5066216;28;20494;-81
2022/06/15 00:27:48;;;;;;;6.22;2.65;;;18.80;99.90;;;;;;5067789;28;20487;-80
2022/06/15 00:30:15;;;;;;;6.63;2.92;;;18.80;99.90;;;;;;5065887;28;20049;-79
2022/06/15 00:32:42;;;;;;;5.50;2.65;;;18.80;99.90;;;;;;5068412;28;20048;-79
2022/06/15 00:35:09;;;;;;;4.20;2.85;;;18.80;99.90;;;;;;5065657;28;20139;-80
2022/06/15 00:37:36;;;;;;;9.50;3.35;;;18.80;99.90;;;;;;5060966;28;20052;-79
2022/06/15 00:40:06;;;;;;;5.25;2.63;;;18.70;99.90;;;;;;5069222;28;20048;-79
2022/06/15 00:42:34;;;;;;;4.43;2.50;;;18.70;99.90;;;;;;5067644;28;20102;-78
2022/06/15 00:45:01;;;;;;;5.22;2.35;;;18.70;99.90;;;;;;5050823;28;20044;-78
2022/06/15 00:47:32;;;;;;;5.00;2.53;;;18.70;99.90;;;;;;5070926;28;20052;-80
2022/06/15 00:50:09;;;;;;;3.97;2.70;;;18.70;99.90;;;;;;5068738;28;20059;-80
2022/06/15 00:52:44;;;;;;;4.63;2.60;;;18.70;99.90;;;;;;5065448;28;20474;-80
2022/06/15 00:55:21;;;;;;;3.80;2.30;;;18.60;99.90;;;;;;5068699;28;20080;-79
2022/06/15 00:57:48;;;;;;;9.20;2.50;;;18.60;99.90;;;;;;5063344;28;20505;-79
2022/06/15 01:00:16;;;;;;;4.65;2.40;;;18.50;99.90;;;;;;5071973;28;20063;-80
2022/06/15 01:02:43;;;;;;;5.20;2.47;;;18.50;99.90;;;;;;5067478;28;20068;-80
2022/06/15 01:05:57;;;;;;;7.70;2.90;;;18.50;99.90;;;;;;5067053;28;20051;-80
2022/06/15 01:08:38;;;;;;;5.93;2.67;;;18.40;99.90;;;;;;5046781;28;20477;-80
2022/06/15 01:11:22;;;;;;;5.03;2.55;;;18.40;99.90;;;;;;5078371;28;20053;-79
2022/06/15 01:14:00;;;;;;;5.53;2.35;;;18.40;99.90;;;;;;5076163;28;20113;-79
2022/06/15 01:16:29;;;;;;;6.10;2.53;;;18.40;99.90;;;;;;5081221;28;20051;-79
2022/06/15 01:19:01;;;;;;;4.15;2.20;;;18.30;99.90;;;;;;5073899;28;20521;-79
2022/06/15 01:21:30;;;;;;;2.67;2.08;;;18.30;99.90;;;;;;5080270;28;20097;-79
2022/06/15 01:24:08;;;;;;;5.35;2.45;;;18.30;99.90;;;;;;5079483;28;20132;-80
2022/06/15 01:26:45;;;;;;;4.55;2.45;;;18.40;99.90;;;;;;5074101;28;20045;-78
2022/06/15 01:29:30;;;;;;;3.55;2.33;;;18.40;99.90;;;;;;5070306;28;20092;-80
2022/06/15 01:32:19;;;;;;;2.78;2.28;;;18.30;99.90;;;;;;5064599;28;20052;-80
2022/06/15 01:35:14;;;;;;;3.55;2.50;;;18.30;99.90;;;;;;5064841;28;20079;-80
2022/06/15 01:37:55;;;;;;;5.47;2.35;;;18.30;99.90;;;;;;5065658;28;20055;-79
2022/06/15 01:40:36;;;;;;;6.40;2.85;;;18.30;99.90;;;;;;5068685;28;20475;-79
2022/06/15 01:43:12;;;;;;;4.35;2.58;;;18.30;99.90;;;;;;5066596;28;20049;-80
2022/06/15 01:45:41;;;;;;;4.82;2.25;;;18.30;99.90;;;;;;5069580;28;20045;-80
2022/06/15 01:48:11;;;;;;;5.30;2.75;;;18.30;99.90;;;;;;5071730;28;20045;-79
2022/06/15 01:50:39;;;;;;;;;;;18.30;99.90;;;;;;5064814;28;20059;-79
2022/06/15 01:53:21;;;;;;;4.82;2.40;;;18.30;99.90;;;;;;5072149;28;19991;-80
2022/06/15 01:55:56;;;;;;;3.28;2.03;;;18.30;99.90;;;;;;5074882;28;20052;-79
2022/06/15 01:58:27;;;;;;;4.75;2.28;;;18.30;99.90;;;;;;5069055;28;20045;-80
2022/06/15 02:01:15;;;;;;;5.10;2.55;;;18.30;99.90;;;;;;5074000;28;20044;-80
2022/06/15 02:04:01;;;;;;;4.85;2.10;;;18.30;99.90;;;;;;5079055;28;20136;-78
2022/06/15 02:06:33;;;;;;;4.85;2.28;;;18.20;99.90;;;;;;5081190;28;20049;-80
2022/06/15 02:09:09;;;;;;;3.17;2.55;;;18.20;99.90;;;;;;5082881;28;20059;-78
2022/06/15 02:11:40;;;;;;;6.45;2.47;;;18.20;99.90;;;;;;5084096;28;20060;-78
2022/06/15 02:14:18;;;;;;;4.25;2.55;;;18.20;99.90;;;;;;5081083;28;20108;-78
2022/06/15 02:17:00;;;;;;;4.63;2.33;;;18.20;99.90;;;;;;5067653;28;20422;-79
2022/06/15 02:19:36;;;;;;;5.50;2.53;;;18.20;99.90;;;;;;5063435;28;20104;-79
2022/06/15 02:22:09;;;;;;;4.43;2.22;;;18.20;99.90;;;;;;5069528;28;20049;-79
2022/06/15 02:24:37;;;;;;;3.40;2.80;;;18.20;99.90;;;;;;5069914;28;20104;-78
2022/06/15 02:27:07;;;;;;;2.92;2.10;;;18.30;99.90;;;;;;5068191;28;20076;-78
2022/06/15 02:29:37;;;;;;;;;;;18.30;99.90;;;;;;5064586;28;20048;-79
2022/06/15 02:32:08;;;;;;;8.13;2.63;;;18.30;99.90;;;;;;5069869;28;19922;-79
2022/06/15 02:34:35;;;;;;;3.35;2.38;;;18.20;99.90;;;;;;5069038;28;20041;-79
2022/06/15 02:37:04;;;;;;;6.25;2.92;;;18.30;99.90;;;;;;5068342;28;20132;-77
2022/06/15 02:39:33;;;;;;;4.13;2.83;;;18.20;99.90;;;;;;5052298;28;20045;-80
2022/06/15 02:42:03;;;;;;;4.68;2.47;;;18.30;99.90;;;;;;5066770;28;20041;-79
2022/06/15 02:44:33;;;;;;;7.07;2.78;;;18.30;99.90;;;;;;5064215;28;20080;-78
2022/06/15 02:46:59;;;;;;;5.10;2.88;;;18.30;99.90;;;;;;5069789;28;20063;-80
2022/06/15 02:49:26;;;;;;;4.30;2.50;;;18.30;99.90;;;;;;5068355;28;20049;-78
2022/06/15 02:52:01;;;;;;;5.25;2.80;;;18.30;99.90;;;;;;5067954;28;20055;-79
2022/06/15 02:54:48;;;;;;;4.22;2.50;;;18.20;99.90;;;;;;5070040;28;20075;-80
2022/06/15 02:57:16;;;;;;;5.32;2.60;;;18.20;99.90;;;;;;5067537;28;20052;-79
2022/06/15 02:59:45;;;;;;;6.53;3.33;;;18.20;99.90;;;;;;5065751;28;20047;-79
2022/06/15 03:02:15;;;;;;;4.07;2.20;;;18.20;99.90;;;;;;5062139;28;20053;-78
2022/06/15 03:04:42;;;;;;;;;;;18.10;99.90;;;;;;5069339;28;20055;-77
2022/06/15 03:07:10;;;;;;;5.05;2.65;;;18.10;99.90;;;;;;5067979;28;19927;-80
2022/06/15 03:09:39;;;;;;;4.57;2.65;;;18.10;99.90;;;;;;5069264;28;20084;-78
2022/06/15 03:12:06;;;;;;;6.75;2.60;;;18.10;99.90;;;;;;5050672;28;20107;-80
2022/06/15 03:14:34;;;;;;;4.22;2.97;;;18.20;99.90;;;;;;5053972;28;20055;-80
2022/06/15 03:17:01;;;;;;;5.00;2.70;;;18.20;99.90;;;;;;5069131;28;20427;-76
2022/06/15 03:19:28;;;;;;;7.00;4.40;;;18.10;99.90;;;;;;5071109;28;20136;-79
2022/06/15 03:21:54;;;;;;;6.72;2.80;;;18.10;99.90;;;;;;5064929;28;20045;-79
2022/06/15 03:24:21;;;;;;;5.75;2.85;;;18.10;99.90;;;;;;5072846;28;20072;-78
2022/06/15 03:26:48;;;;;;;4.05;2.65;;;18.10;99.90;;;;;;5069370;28;20132;-79
2022/06/15 03:29:15;;;;;;;7.03;2.88;;;18.10;99.90;;;;;;5070351;28;20048;-78
2022/06/15 03:31:41;;;;;;;5.15;3.22;;;18.10;99.90;;;;;;5069598;28;20091;-78
2022/06/15 03:34:08;;;;;;;4.13;3.05;;;18.20;99.90;;;;;;5069661;28;20072;-79
2022/06/15 03:36:35;;;;;;;4.95;3.03;;;18.20;99.90;;;;;;5070495;28;20059;-79
2022/06/15 03:39:02;;;;;;;3.85;2.80;;;18.20;99.90;;;;;;5067735;28;20049;-77
2022/06/15 03:41:29;;;;;;;6.90;3.35;;;18.20;99.90;;;;;;5071354;28;20130;-79
2022/06/15 03:43:56;;;;;;;5.13;3.08;;;18.20;99.90;;;;;;5050533;28;20092;-79
2022/06/15 03:46:23;;;;;;;4.30;2.90;;;18.10;99.90;;;;;;5072116;28;20045;-80
2022/06/15 03:48:50;;;;;;;10.88;3.60;;;18.20;99.90;;;;;;5068332;28;20045;-79
2022/06/15 03:51:17;;;;;;;5.78;2.85;;;18.20;99.90;;;;;;5071102;28;20498;-81
2022/06/15 03:53:43;;;;;;;4.15;2.90;;;18.20;99.90;;;;;;5069022;28;20049;-80
2022/06/15 03:56:10;;;;;;;4.50;2.85;;;18.30;99.90;;;;;;5069705;28;20112;-80
2022/06/15 03:58:37;;;;;;;6.68;3.35;;;18.30;99.90;;;;;;5051505;28;20412;-80
2022/06/15 04:01:03;;;;;;;7.45;3.25;;;18.30;99.90;;;;;;5051478;28;20052;-79
2022/06/15 04:03:30;;;;;;;9.90;3.17;;;18.30;99.90;;;;;;5070056;28;20045;-79
2022/06/15 04:06:00;;;;;;;4.82;3.03;;;18.40;99.90;;;;;;5068576;28;20053;-79
2022/06/15 04:08:35;;;;;;;6.82;2.90;;;18.40;99.90;;;;;;5071017;28;20048;-79
2022/06/15 04:11:11;;;;;;;5.20;3.10;;;18.40;99.90;;;;;;5063942;28;20048;-78
2022/06/15 04:13:38;;;;;;;8.60;3.55;;;18.40;99.90;;;;;;5069541;28;20052;-77
2022/06/15 04:16:08;;;;;;;7.05;2.72;;;18.40;99.90;;;;;;5066198;28;20049;-78
2022/06/15 04:18:35;;;;;;;8.25;3.03;;;18.50;99.90;;;;;;5061090;28;20126;-80
2022/06/15 04:21:01;;;;;;;8.45;3.20;;;18.50;99.90;;;;;;5069227;28;20136;-78
2022/06/15 04:23:28;;;;;;;5.00;2.90;;;18.50;99.90;;;;;;5066217;28;20045;-79
2022/06/15 04:26:00;;;;;;;7.38;3.83;;;18.50;99.90;;;;;;5067003;28;20047;-79
2022/06/15 04:28:30;;;;;;;10.30;3.05;;;18.50;99.90;;;;;;5066794;28;20048;-79
2022/06/15 04:30:57;;;;;;;4.57;3.08;;;18.50;99.90;;;;;;5066854;28;20076;-78
2022/06/15 04:33:27;;;;;;;9.82;3.00;;;18.60;99.90;;;;;;5071935;28;20109;-80
2022/06/15 04:35:54;;;;;;;5.82;2.72;;;18.60;99.90;;;;;;5062725;28;20044;-80
2022/06/15 04:38:21;;;;;;;6.13;3.40;;;18.70;99.90;;;;;;5070602;28;20045;-78
2022/06/15 04:40:48;;;;;;;5.63;3.45;;;18.70;99.90;;;;;;5069792;28;20044;-79
2022/06/15 04:43:15;;;;;;;4.25;3.05;;;18.70;99.90;;;;;;5066820;28;20068;-79
2022/06/15 04:45:41;;;;;;;9.25;3.03;;;18.80;99.90;;;;;;5067366;28;20158;-77
2022/06/15 04:48:09;;;;;;;4.20;3.13;;;18.90;99.90;;;;;;5066937;28;20521;-76
2022/06/15 04:50:37;;;;;;;7.72;3.75;;;18.90;99.90;;;;;;5050229;28;20370;-80
2022/06/15 04:53:05;;;;;;;4.93;3.65;;;18.90;99.90;;;;;;5065277;28;20083;-79
2022/06/15 04:55:33;;;;;;;3.83;2.88;;;19.00;99.90;;;;;;5069072;28;20051;-80
2022/06/15 04:58:00;;;;;;;5.28;3.33;;;19.00;99.90;;;;;;5061922;28;20059;-80
2022/06/15 05:00:38;;;;;;;4.63;3.25;;;19.00;99.90;;;;;;5070414;28;20131;-80
2022/06/15 05:03:05;;;;;;;6.97;3.20;;;19.00;99.90;;;;;;5056974;28;20071;-79
2022/06/15 05:05:32;;;;;;;6.82;3.35;;;19.00;99.90;;;;;;5069364;28;20495;-79
2022/06/15 05:07:59;;;;;;;7.55;3.38;;;19.10;99.90;;;;;;5069605;28;20044;-78
2022/06/15 05:10:26;;;;;;;7.45;3.05;;;19.10;99.90;;;;;;5066134;28;20082;-79
2022/06/15 05:12:54;;;;;;;5.47;2.90;;;19.20;99.90;;;;;;5063210;28;20518;-78
2022/06/15 05:15:21;;;;;;;11.20;3.17;;;19.20;99.90;;;;;;5069745;28;20062;-77
2022/06/15 05:17:48;;;;;;;6.10;3.05;;;19.40;99.90;;;;;;5067657;28;20132;-78
2022/06/15 05:20:16;;;;;;;9.38;3.75;;;19.40;99.90;;;;;;5069717;28;20506;-77
2022/06/15 05:22:43;;;;;;;7.90;3.58;;;19.60;99.90;;;;;;5070106;28;20045;-78
2022/06/15 05:25:10;;;;;;;7.38;3.17;;;19.60;99.90;;;;;;5069135;28;20506;-78
2022/06/15 05:27:37;;;;;;;8.20;3.60;;;19.80;99.90;;;;;;5072182;28;20063;-80
2022/06/15 05:30:05;;;;;;;7.32;3.58;;;19.80;99.90;;;;;;5072102;28;20116;-78
2022/06/15 05:32:32;;;;;;;9.13;3.15;;;19.90;99.90;;;;;;5076572;28;20059;-78
2022/06/15 05:35:00;;;;;;;5.32;3.83;;;19.90;99.90;;;;;;5068206;28;20068;-79
2022/06/15 05:37:30;;;;;;;6.38;3.25;;;20.00;99.90;;;;;;5074938;28;20056;-77
2022/06/15 05:39:58;;;;;;;7.95;3.55;;;20.10;99.90;;;;;;5073466;28;20063;-77
2022/06/15 05:42:29;;;;;;;7.63;3.05;;;20.10;99.90;;;;;;5074552;28;20046;-80
2022/06/15 05:44:56;;;;;;;7.10;3.55;;;20.10;99.90;;;;;;5075932;28;20128;-79
2022/06/15 05:47:23;;;;;;;6.57;3.55;;;20.10;99.90;;;;;;5072057;28;20048;-77
2022/06/15 05:49:50;;;;;;;14.00;4.05;;;20.10;99.90;;;;;;5075484;28;20048;-79
2022/06/15 05:52:16;;;;;;;8.68;4.03;;;20.20;99.90;;;;;;5071650;28;20053;-78
2022/06/15 05:54:43;;;;;;;10.15;4.97;;;20.20;99.90;;;;;;5075319;28;20062;-77
2022/06/15 05:57:22;;;;;;;11.70;4.53;;;20.30;99.90;;;;;;5072383;28;20088;-79
2022/06/15 05:59:50;;;;;;;9.50;4.38;;;20.30;99.90;;;;;;5072035;28;20068;-77
2022/06/15 06:02:19;;;;;;;8.35;4.72;;;20.30;99.90;;;;;;5057676;28;20343;-80
2022/06/15 06:04:46;;;;;;;9.50;4.53;;;20.30;99.90;;;;;;5068420;28;20059;-78
2022/06/15 06:07:18;;;;;;;8.60;4.60;;;20.40;99.90;;;;;;5074352;28;20127;-79
2022/06/15 06:09:44;;;;;;;10.80;4.78;;;20.40;99.90;;;;;;5071632;28;20049;-80
2022/06/15 06:12:11;;;;;;;13.00;4.90;;;20.50;99.90;;;;;;5073081;28;20107;-79
2022/06/15 06:14:38;;;;;;;10.15;4.35;;;20.50;99.90;;;;;;5073374;28;20117;-78
2022/06/15 06:17:06;;;;;;;11.95;5.70;;;20.50;99.90;;;;;;5072873;28;20082;-79
2022/06/15 06:19:34;;;;;;;13.18;4.95;;;20.50;99.90;;;;;;5074570;28;20047;-79
2022/06/15 06:22:01;;;;;;;8.90;4.75;;;20.50;99.90;;;;;;5071742;28;20049;-78
2022/06/15 06:24:28;;;;;;;10.27;4.53;;;20.50;99.90;;;;;;5067254;28;20049;-78
2022/06/15 06:27:02;;;;;;;7.45;4.10;;;20.60;99.90;;;;;;5073727;28;20045;-78
2022/06/15 06:29:30;;;;;;;9.90;4.85;;;20.60;99.90;;;;;;5072328;28;20073;-80
2022/06/15 06:31:58;;;;;;;8.45;4.40;;;20.60;99.90;;;;;;5071494;28;20063;-80
2022/06/15 06:34:26;;;;;;;10.60;4.70;;;20.60;99.90;;;;;;5074275;28;20052;-79
2022/06/15 06:36:53;;;;;;;8.07;4.68;;;20.70;99.90;;;;;;5071999;28;20048;-81
2022/06/15 06:39:25;;;;;;;11.38;4.32;;;20.70;99.90;;;;;;5064234;28;20409;-79
2022/06/15 06:41:53;;;;;;;11.32;5.05;;;20.70;99.90;;;;;;5073270;28;20132;-80
2022/06/15 06:44:20;;;;;;;8.85;4.05;;;20.80;99.90;;;;;;5072714;28;20505;-79
2022/06/15 06:46:48;;;;;;;10.40;3.70;;;20.80;99.90;;;;;;5072411;28;20056;-81
2022/06/15 06:49:16;;;;;;;8.85;3.58;;;20.80;99.90;;;;;;5072767;28;20056;-79
2022/06/15 06:51:44;;;;;;;11.07;5.28;;;20.80;99.90;;;;;;5069725;28;20116;-80
2022/06/15 06:54:15;;;;;;;8.85;3.60;;;20.90;99.90;;;;;;5071001;28;20045;-80
2022/06/15 06:56:42;;;;;;;6.55;4.00;;;20.90;99.90;;;;;;5068994;28;20414;-79
2022/06/15 06:59:11;;;;;;;7.00;4.18;;;21.00;99.90;;;;;;5073145;28;20045;-79
2022/06/15 07:01:41;;;;;;;10.18;4.50;;;21.00;99.90;;;;;;5072773;28;20045;-79
2022/06/15 07:04:08;;;;;;;;;;;21.10;99.90;;;;;;5072010;28;20139;-77
2022/06/15 07:06:36;;;;;;;7.50;4.32;;;21.10;99.90;;;;;;5075477;28;19936;-79
2022/06/15 07:09:03;;;;;;;15.32;4.38;;;21.10;99.90;;;;;;5074147;28;20071;-78
2022/06/15 07:11:31;;;;;;;7.07;3.75;;;21.10;99.90;;;;;;5070636;28;20048;-79
2022/06/15 07:13:58;;;;;;;6.90;3.78;;;21.10;99.90;;;;;;5073013;28;20052;-79
2022/06/15 07:16:25;;;;;;;6.75;4.10;;;21.20;99.90;;;;;;5071691;28;20049;-80
2022/06/15 07:18:53;;;;;;;9.73;4.28;;;21.20;99.90;;;;;;5072221;28;20047;-80
2022/06/15 07:21:23;;;;;;;6.68;3.92;;;21.30;99.90;;;;;;5072061;28;20122;-79
2022/06/15 07:23:51;;;;;;;;;;;21.30;99.90;;;;;;5072123;28;20104;-78
2022/06/15 07:26:23;;;;;;;9.98;3.67;;;21.30;99.90;;;;;;5073029;28;19920;-79
2022/06/15 07:28:50;;;;;;;13.77;3.65;;;21.40;99.90;;;;;;5067286;28;20103;-78
2022/06/15 07:31:27;;;;;;;7.93;3.95;;;21.40;99.90;;;;;;5073784;28;20054;-78
2022/06/15 07:33:55;;;;;;;10.93;3.97;;;21.50;99.90;;;;;;5072694;28;20158;-79
2022/06/15 07:36:23;;;;;;;12.43;4.60;;;21.50;99.90;;;;;;5070836;28;20059;-78
2022/06/15 07:38:52;;;;;;;13.48;4.55;;;21.60;99.90;;;;;;5073380;28;20044;-79
2022/06/15 07:41:19;;;;;;;8.10;3.85;;;21.60;99.90;;;;;;5067485;28;20057;-78
2022/06/15 07:43:46;;;;;;;14.40;3.88;;;21.70;99.90;;;;;;5073496;28;20479;-80
2022/06/15 07:46:13;;;;;;;8.52;3.92;;;21.70;99.90;;;;;;5071488;28;20083;-79
2022/06/15 07:51:37;;;;;;;8.70;4.03;;;21.80;99.90;;;;;;5067662;28;20076;-81
2022/06/15 07:54:05;;;;;;;10.32;4.20;;;21.90;99.90;;;;;;5053261;28;20097;-78
2022/06/15 07:56:32;;;;;;;9.93;4.05;;;21.90;99.90;;;;;;5072327;28;20462;-78
2022/06/15 07:58:59;;;;;;;11.02;3.53;;;22.00;99.90;;;;;;5068915;28;20057;-78
2022/06/15 08:01:26;;;;;;;7.68;3.05;;;22.00;99.90;;;;;;5073050;28;20413;-78
2022/06/15 08:03:55;;;;;;;11.05;3.60;;;22.10;99.90;;;;;;5065757;28;20059;-79
2022/06/15 08:06:23;;;;;;;12.95;3.92;;;22.20;99.90;;;;;;5072941;28;20055;-78
2022/06/15 08:08:50;;;;;;;8.43;4.03;;;22.20;99.90;;;;;;5052390;28;20414;-80
2022/06/15 08:11:16;;;;;;;10.98;3.63;;;22.30;99.90;;;;;;5072117;28;20418;-79
2022/06/15 08:13:45;;;;;;;7.50;3.58;;;22.30;99.90;;;;;;5071674;28;20051;-80
2022/06/15 08:16:13;;;;;;;8.30;3.60;;;22.40;99.90;;;;;;5053183;28;20054;-80
2022/06/15 08:18:44;;;;;;;6.63;3.50;;;22.50;99.90;;;;;;5071950;28;20044;-78
2022/06/15 08:21:17;;;;;;;6.93;3.33;;;22.50;99.90;;;;;;5066007;28;20044;-79
2022/06/15 08:23:46;;;;;;;8.60;3.25;;;22.50;99.90;;;;;;5072200;28;20044;-77
2022/06/15 08:26:20;;;;;;;8.07;3.60;;;22.60;99.90;;;;;;5070070;28;20124;-78
2022/06/15 08:28:50;;;;;;;9.63;3.30;;;22.60;99.90;;;;;;5051982;28;20049;-80
2022/06/15 08:31:18;;;;;;;7.18;3.30;;;22.70;99.90;;;;;;5065645;28;20049;-78
2022/06/15 08:33:45;;;;;;;7.60;3.53;;;22.70;99.90;;;;;;5071614;28;20395;-80
2022/06/15 08:36:18;;;;;;;7.75;3.75;;;22.80;99.90;;;;;;5071229;28;20081;-78
2022/06/15 08:38:45;;;;;;;8.65;3.25;;;22.80;99.90;;;;;;5052455;28;20083;-79
2022/06/15 08:41:28;;;;;;;9.98;3.55;;;22.90;99.90;;;;;;5072527;28;20045;-80
2022/06/15 08:44:44;;;;;;;9.68;3.38;;;23.00;99.90;;;;;;5071116;28;20313;-77
2022/06/15 08:47:33;;;;;;;8.60;3.33;;;23.00;99.90;;;;;;5052821;28;20474;-77
2022/06/15 08:50:19;;;;;;;8.52;3.30;;;23.10;99.90;;;;;;5066156;28;20495;-78
2022/06/15 08:52:54;;;;;;;12.48;3.60;;;23.10;99.90;;;;;;5069811;28;20136;-79
2022/06/15 08:55:38;;;;;;;8.88;3.60;;;23.20;99.90;;;;;;5063273;28;20054;-79
2022/06/15 08:58:24;;;;;;;7.82;3.22;;;23.30;99.90;;;;;;5052194;28;20080;-78
2022/06/15 09:00:57;;;;;;;7.20;3.50;;;23.30;99.90;;;;;;5069500;28;20041;-78
2022/06/15 09:03:53;;;;;;;9.40;3.88;;;23.40;99.90;;;;;;5068650;28;20059;-79
2022/06/15 09:07:01;;;;;;;6.63;3.15;;;23.50;99.90;;;;;;5065264;28;20053;-80
2022/06/15 09:09:48;;;;;;;10.80;3.28;;;23.50;99.90;;;;;;5069477;28;20084;-80
2022/06/15 09:12:50;;;;;;;11.35;3.90;;;23.70;99.90;;;;;;5067625;28;20075;-79
2022/06/15 09:15:42;;;;;;;10.10;3.47;;;23.70;99.90;;;;;;5070912;28;20055;-80
2022/06/15 09:18:15;;;;;;;7.35;2.75;;;23.80;99.90;;;;;;5071036;28;20053;-79
2022/06/15 09:20:56;;;;;;;10.50;3.33;;;23.80;99.90;;;;;;5068935;28;20049;-76
2022/06/15 09:23:48;;;;;;;6.07;2.78;;;23.80;99.90;;;;;;5068626;28;20536;-79
2022/06/15 09:26:40;;;;;;;6.47;2.50;;;23.90;99.90;;;;;;5068200;28;20087;-79
2022/06/15 09:29:15;;;;;;;7.75;2.75;;;24.00;99.90;;;;;;5067900;28;20151;-78
2022/06/15 09:32:00;;;;;;;6.28;2.72;;;24.00;99.90;;;;;;5069851;28;20098;-78
2022/06/15 09:34:37;;;;;;;4.85;2.90;;;24.20;99.90;;;;;;5066287;28;20045;-79
2022/06/15 09:37:11;;;;;;;5.80;2.83;;;24.20;99.90;;;;;;5065164;28;20105;-80
2022/06/15 09:39:39;;;;;;;4.68;2.72;;;24.20;99.90;;;;;;5070924;28;20048;-78
2022/06/15 09:42:18;;;;;;;6.15;3.08;;;24.30;99.90;;;;;;5071484;28;20513;-79
2022/06/15 09:44:57;;;;;;;8.55;2.60;;;24.30;99.90;;;;;;5069333;28;20080;-80
2022/06/15 09:47:44;;;;;;;6.55;2.88;;;24.30;99.90;;;;;;5070236;28;20097;-80
2022/06/15 09:50:29;;;;;;;6.60;3.05;;;24.40;99.90;;;;;;5067185;28;20109;-79
2022/06/15 09:53:23;;;;;;;6.45;2.90;;;24.40;99.90;;;;;;5066356;28;20061;-78
2022/06/15 09:55:56;;;;;;;5.38;2.53;;;24.50;99.90;;;;;;5065714;28;20113;-78
2022/06/15 09:59:06;;;;;;;6.38;3.05;;;24.50;99.90;;;;;;5064518;28;20128;-78
2022/06/15 10:01:38;;;;;;;7.97;2.88;;;24.60;99.90;;;;;;5068770;28;20546;-80
2022/06/15 10:04:09;;;;;;;8.15;2.70;;;24.70;99.90;;;;;;5072726;28;20115;-78
2022/06/15 10:07:07;;;;;;;4.75;2.33;;;24.80;99.90;;;;;;5065172;28;20060;-81
2022/06/15 10:09:37;;;;;;;6.85;2.53;;;24.90;99.90;;;;;;5064388;28;20044;-80
2022/06/15 10:12:55;;;;;;;4.78;2.30;;;24.90;99.90;;;;;;5070347;28;20143;-79
2022/06/15 10:15:42;;;;;;;5.88;1.95;;;24.90;99.90;;;;;;5072457;28;20130;-78
2022/06/15 10:18:36;;;;;;;5.50;2.35;;;25.00;99.90;;;;;;5051290;28;20136;-78
2022/06/15 10:21:14;;;;;;;5.70;2.35;;;25.00;99.90;;;;;;5072399;28;20085;-79
2022/06/15 10:23:56;;;;;;;10.10;3.17;;;25.00;99.90;;;;;;5067836;28;20117;-81
2022/06/15 10:26:32;;;;;;;5.90;2.22;;;25.10;99.90;;;;;;5069556;28;20044;-78
2022/06/15 10:29:18;;;;;;;3.17;2.22;;;25.10;99.90;;;;;;5067862;28;20045;-78
2022/06/15 10:32:18;;;;;;;6.47;2.38;;;25.20;99.90;;;;;;5072638;28;20041;-78
2022/06/15 10:35:02;;;;;;;5.00;2.28;;;25.40;99.90;;;;;;5069870;28;20485;-78
2022/06/15 10:37:32;;;;;;;5.80;2.10;;;25.40;99.90;;;;;;5072498;28;20109;-78
2022/06/15 10:40:17;;;;;;;2.60;1.90;;;25.40;99.90;;;;;;5075381;28;20048;-79
2022/06/15 10:42:50;;;;;;;3.40;2.00;;;25.50;99.90;;;;;;5074488;28;20053;-79
2022/06/15 10:45:23;;;;;;;5.05;2.03;;;25.50;99.90;;;;;;5068606;28;20117;-79
2022/06/15 10:47:55;;;;;;;4.82;2.13;;;25.50;99.90;;;;;;5075313;28;20071;-81
2022/06/15 10:50:40;;;;;;;9.15;2.20;;;25.50;99.90;;;;;;5074722;28;20049;-80
2022/06/15 10:53:42;;;;;;;5.25;2.03;;;25.60;99.90;;;;;;5068751;28;20064;-79
2022/06/15 11:02:31;;;;;;;4.57;2.25;;;25.90;99.90;;;;;;5072136;28;20068;-79
2022/06/15 11:05:11;;;;;;;6.72;2.13;;;26.10;99.90;;;;;;5073812;28;20048;-80
2022/06/15 11:07:44;;;;;;;3.57;2.27;;;26.00;99.90;;;;;;5075949;28;20063;-80
2022/06/15 11:10:32;;;;;;;8.32;1.90;;;26.00;99.90;;;;;;5076624;28;20135;-79
2022/06/15 11:13:03;;;;;;;4.72;2.22;;;26.00;99.90;;;;;;5075267;28;20426;-78
2022/06/15 11:18:44;;;;;;;3.58;1.70;;;26.10;99.90;;;;;;5064443;28;20076;-78
2022/06/15 11:21:23;;;;;;;4.70;1.75;;;26.10;99.90;;;;;;5066307;28;20559;-80
2022/06/15 11:24:03;;;;;;;4.85;2.25;;;26.20;99.90;;;;;;5063872;28;20041;-80
2022/06/15 11:26:53;;;;;;;4.47;1.83;;;26.40;99.90;;;;;;5064903;28;20510;-79
2022/06/15 11:29:43;;;;;;;6.22;1.83;;;26.40;99.90;;;;;;5068389;28;20079;-79
2022/06/15 11:32:33;;;;;;;6.15;2.20;;;26.40;99.90;;;;;;5067405;28;20633;-78
2022/06/15 11:35:12;;;;;;;5.60;1.95;;;26.50;99.90;;;;;;5049482;28;20052;-79
2022/06/15 11:37:46;;;;;;;3.10;1.70;;;26.60;99.90;;;;;;5062188;28;20045;-80
2022/06/15 11:40:39;;;;;;;3.92;2.10;;;26.60;99.90;;;;;;5067311;28;20108;-80
2022/06/15 11:43:15;;;;;;;2.92;2.08;;;26.60;99.90;;;;;;5064763;28;20084;-81
2022/06/15 11:46:16;;;;;;;3.67;1.95;;;26.60;99.90;;;;;;5066271;28;20076;-79
2022/06/15 11:49:11;;;;;;;2.55;1.60;;;26.60;99.90;;;;;;5063698;28;20109;-79
2022/06/15 11:52:00;;;;;;;3.42;1.55;;;26.70;99.90;;;;;;5062347;28;20045;-79
2022/06/15 11:55:18;;;;;;;4.32;1.75;;;26.80;99.90;;;;;;5063758;28;20092;-79
2022/06/15 11:58:02;;;;;;;1.65;1.42;;;27.00;99.90;;;;;;5025298;28;20453;-80
2022/06/15 12:00:48;;;;;;;4.60;1.50;;;27.00;99.90;;;;;;5063212;28;20055;-80
2022/06/15 12:03:34;;;;;;;3.35;1.45;;;27.10;99.90;;;;;;5063118;28;20309;-80
2022/06/15 12:06:07;;;;;;;2.65;1.48;;;27.30;99.90;;;;;;5069245;28;20075;-81
2022/06/15 12:08:46;;;;;;;5.28;1.60;;;27.50;99.90;;;;;;5047049;28;20091;-80
2022/06/15 12:15:01;;;;;;;5.55;1.60;;;27.40;99.90;;;;;;5074109;28;20041;-80
2022/06/15 12:17:35;;;;;;;4.45;1.48;;;27.40;99.90;;;;;;5075455;28;20041;-79
2022/06/15 12:20:22;;;;;;;2.92;1.40;;;27.40;99.90;;;;;;5067986;28;20514;-79
2022/06/15 12:23:01;;;;;;;2.03;1.15;;;27.40;99.90;;;;;;5058848;28;20087;-80
2022/06/15 12:25:42;;;;;;;4.97;1.52;;;27.60;99.90;;;;;;5065475;28;20045;-80
2022/06/15 12:28:24;;;;;;;3.38;1.50;;;27.70;99.90;;;;;;5061893;28;20118;-80
2022/06/15 12:31:09;;;;;;;5.05;1.45;;;27.70;99.90;;;;;;5069445;28;20045;-80
2022/06/15 12:34:07;;;;;;;5.82;1.52;;;27.80;99.90;;;;;;5068968;28;20112;-82
2022/06/15 12:36:42;;;;;;;4.82;1.80;;;27.80;99.90;;;;;;5075059;28;20116;-77
2022/06/15 12:39:34;;;;;;;3.25;1.75;;;27.90;99.90;;;;;;5067438;28;20053;-79
2022/06/15 12:42:10;;;;;;;4.43;1.90;;;27.90;99.90;;;;;;5071844;28;20132;-81
2022/06/15 12:44:51;;;;;;;4.32;1.65;;;28.00;99.90;;;;;;5056773;28;20048;-80
2022/06/15 12:47:20;;;;;;;4.70;1.45;;;28.10;99.90;;;;;;5067254;28;20045;-81
2022/06/15 12:50:21;;;;;;;3.05;1.42;;;28.00;99.90;;;;;;5073837;28;20048;-80
2022/06/15 12:53:11;;;;;;;3.72;1.70;;;28.20;99.90;;;;;;5070630;28;20135;-79
2022/06/15 12:55:47;;;;;;;1.95;1.30;;;28.30;99.90;;;;;;5070575;28;20045;-80
2022/06/15 12:58:15;;;;;;;2.45;1.40;;;28.30;99.90;;;;;;5072334;28;20139;-78
2022/06/15 13:00:51;;;;;;;3.50;1.40;;;28.20;99.90;;;;;;5074856;28;20048;-80
2022/06/15 13:03:38;;;;;;;5.35;1.73;;;28.20;99.90;;;;;;5069925;28;20098;-79
2022/06/15 13:06:28;;;;;;;3.42;1.73;;;28.50;99.90;;;;;;5068372;28;20136;-80
2022/06/15 13:09:14;;;;;;;7.63;1.55;;;28.40;99.90;;;;;;5052945;28;20047;-80
2022/06/15 13:11:47;;;;;;;3.13;1.40;;;28.40;99.90;;;;;;5071351;28;20055;-80
2022/06/15 13:14:17;;;;;;;3.20;1.25;;;28.40;99.90;;;;;;5067092;28;20075;-80
2022/06/15 13:17:01;;;;;;;4.28;1.23;;;28.40;99.90;;;;;;5072921;28;20060;-79
2022/06/15 13:19:43;;;;;;;6.50;1.40;;;28.40;99.90;;;;;;5074173;28;20048;-78
2022/06/15 13:22:23;;;;;;;4.00;1.30;;;28.30;99.90;;;;;;5073027;28;20136;-81
2022/06/15 13:24:55;;;;;;;5.28;1.15;;;28.30;99.90;;;;;;5066803;28;20064;-80
2022/06/15 13:27:35;;;;;;;8.07;1.50;;;28.30;99.90;;;;;;5055307;28;20346;-80
2022/06/15 13:30:27;;;;;;;1.75;1.20;;;28.30;99.90;;;;;;5073450;28;20048;-81
2022/06/15 13:32:54;;;;;;;3.65;1.00;;;28.20;98.50;;;;;;5074191;28;20055;-79
2022/06/15 13:35:23;;;;;;;2.63;1.00;;;28.30;98.60;;;;;;5067709;28;20099;-79
2022/06/15 13:38:14;;;;;;;2.70;1.50;;;28.30;98.40;;;;;;5073535;28;20087;-80
2022/06/15 13:40:53;;;;;;;2.72;1.15;;;28.30;99.10;;;;;;5067302;28;20067;-79